createdAt,value
2019-02-16T00:01:58.903Z,11.83
2019-02-16T00:04:31.412Z,12.20
2019-02-16T00:07:03.171Z,11.40
2019-02-16T00:09:34.132Z,11.53
2019-02-16T00:12:05.234Z,11.67
2019-02-16T00:14:36.594Z,11.93
2019-02-16T00:17:07.152Z,12.20
2019-02-16T00:19:38.566Z,11.63
2019-02-16T00:22:10.239Z,11.93
2019-02-16T00:24:41.166Z,11.43
2019-02-16T00:27:11.592Z,11.70
2019-02-16T00:29:42.839Z,11.47
2019-02-16T00:32:13.430Z,11.13
2019-02-16T00:34:44.524Z,11.57
2019-02-16T00:37:14.922Z,11.30
2019-02-16T00:39:45.883Z,11.00
2019-02-16T00:42:17.021Z,11.03
2019-02-16T00:44:48.499Z,11.30
2019-02-16T00:47:19.658Z,11.47
2019-02-16T00:49:50.761Z,11.40
2019-02-16T00:52:21.907Z,11.40
2019-02-16T00:54:52.734Z,10.97
2019-02-16T00:57:24.181Z,11.37
2019-02-16T00:59:55.325Z,10.77
2019-02-16T01:02:26.790Z,11.03
2019-02-16T01:04:58.251Z,10.90
2019-02-16T01:07:29.064Z,10.97
2019-02-16T01:10:00.296Z,11.67
2019-02-16T01:12:31.334Z,11.20
2019-02-16T01:15:02.802Z,10.60
2019-02-16T01:17:33.882Z,11.37
2019-02-16T01:20:04.833Z,10.87
2019-02-16T01:22:35.709Z,10.43
2019-02-16T01:25:06.769Z,10.07
2019-02-16T01:27:37.382Z,10.93
2019-02-16T01:30:10.787Z,10.67
2019-02-16T01:32:41.219Z,10.43
2019-02-16T01:35:11.651Z,10.17
2019-02-16T01:37:42.156Z,10.03
2019-02-16T01:40:13.274Z,10.80
2019-02-16T01:42:44.418Z,10.10
2019-02-16T01:45:15.610Z,10.10
2019-02-16T01:47:47.057Z,9.73
2019-02-16T01:50:18.227Z,10.10
2019-02-16T01:52:49.342Z,10.43
2019-02-16T01:55:20.186Z,10.80
2019-02-16T01:57:52.244Z,10.57
2019-02-16T02:00:23.270Z,10.00
2019-02-16T02:02:54.225Z,9.67
2019-02-16T02:05:25.374Z,9.50
2019-02-16T02:07:56.849Z,10.33
2019-02-16T02:10:28.050Z,9.70
2019-02-16T02:12:59.721Z,10.03
2019-02-16T02:15:30.362Z,9.73
2019-02-16T02:18:01.404Z,10.00
2019-02-16T02:20:31.748Z,10.13
2019-02-16T02:23:02.689Z,9.90
2019-02-16T02:25:33.077Z,10.30
2019-02-16T02:28:03.892Z,9.67
2019-02-16T02:30:34.225Z,9.67
2019-02-16T02:33:05.498Z,9.53
2019-02-16T02:35:36.128Z,9.43
2019-02-16T02:38:06.860Z,9.93
2019-02-16T02:40:37.193Z,9.03
2019-02-16T02:43:07.950Z,9.10
2019-02-16T02:45:39.058Z,9.60
2019-02-16T02:48:09.845Z,9.53
2019-02-16T02:50:41.050Z,9.00
2019-02-16T02:53:12.183Z,9.43
2019-02-16T02:55:43.639Z,9.57
2019-02-16T02:58:14.717Z,9.70
2019-02-16T03:00:45.926Z,9.10
2019-02-16T03:03:17.090Z,9.20
2019-02-16T03:05:48.098Z,9.37
2019-02-16T03:08:19.363Z,9.27
2019-02-16T03:10:50.502Z,9.67
2019-02-16T03:13:22.257Z,9.13
2019-02-16T03:15:53.119Z,9.30
2019-02-16T03:18:24.610Z,9.73
2019-02-16T03:20:56.606Z,9.07
2019-02-16T03:23:27.932Z,9.23
2019-02-16T03:26:34.836Z,9.50
2019-02-16T03:29:19.693Z,9.30
2019-02-16T03:32:22.068Z,9.30
2019-02-16T03:35:13.279Z,9.40
2019-02-16T03:38:01.090Z,8.87
2019-02-16T03:40:31.654Z,9.40
2019-02-16T03:43:02.544Z,9.13
2019-02-16T03:45:33.487Z,9.20
2019-02-16T03:48:04.799Z,8.90
2019-02-16T03:50:35.962Z,8.83
2019-02-16T03:53:07.383Z,8.93
2019-02-16T03:55:38.579Z,9.23
2019-02-16T03:58:10.582Z,9.17
2019-02-16T04:00:42.033Z,9.07
2019-02-16T04:03:12.650Z,9.17
2019-02-16T04:05:43.398Z,9.37
2019-02-16T04:08:13.918Z,8.60
2019-02-16T04:10:44.468Z,8.83
2019-02-16T04:13:14.861Z,8.93
2019-02-16T04:15:45.686Z,9.00
2019-02-16T04:18:16.078Z,9.00
2019-02-16T04:20:47.303Z,9.43
2019-02-16T04:23:17.821Z,9.17
2019-02-16T04:25:48.559Z,8.90
2019-02-16T04:28:18.891Z,8.83
2019-02-16T04:30:49.930Z,8.83
2019-02-16T04:33:20.850Z,8.93
2019-02-16T04:35:51.286Z,8.87
2019-02-16T04:38:21.605Z,9.17
2019-02-16T04:40:52.342Z,8.33
2019-02-16T04:43:23.153Z,8.50
2019-02-16T04:45:54.034Z,8.97
2019-02-16T04:48:25.171Z,8.00
2019-02-16T04:50:56.618Z,8.50
2019-02-16T04:53:27.611Z,8.37
2019-02-16T04:55:58.935Z,8.63
2019-02-16T04:58:30.349Z,8.53
2019-02-16T05:01:01.789Z,8.20
2019-02-16T05:03:33.563Z,8.23
2019-02-16T05:06:04.701Z,8.07
2019-02-16T05:08:35.849Z,8.07
2019-02-16T05:11:06.989Z,8.50
2019-02-16T05:13:38.527Z,8.27
2019-02-16T05:16:09.582Z,8.23
2019-02-16T05:18:40.729Z,8.23
2019-02-16T05:21:12.214Z,7.80
2019-02-16T05:23:43.321Z,8.40
2019-02-16T05:26:14.797Z,8.10
2019-02-16T05:28:45.920Z,7.87
2019-02-16T05:31:17.056Z,7.80
2019-02-16T05:33:48.519Z,7.70
2019-02-16T05:36:18.846Z,8.20
2019-02-16T05:38:49.880Z,7.60
2019-02-16T05:41:20.218Z,7.97
2019-02-16T05:43:51.255Z,7.93
2019-02-16T05:46:24.652Z,7.57
2019-02-16T05:48:55.378Z,7.63
2019-02-16T05:51:26.854Z,7.77
2019-02-16T05:53:57.997Z,7.17
2019-02-16T05:56:29.118Z,7.70
2019-02-16T05:59:00.091Z,7.30
2019-02-16T06:01:31.400Z,7.40
2019-02-16T06:04:02.498Z,7.03
2019-02-16T06:06:33.403Z,7.83
2019-02-16T06:09:05.718Z,7.77
2019-02-16T06:11:36.694Z,7.40
2019-02-16T06:14:07.867Z,7.40
2019-02-16T06:16:39.290Z,7.40
2019-02-16T06:19:10.668Z,6.70
2019-02-16T06:21:41.599Z,7.20
2019-02-16T06:24:13.027Z,6.77
2019-02-16T06:26:44.257Z,6.93
2019-02-16T06:29:15.262Z,6.80
2019-02-16T06:31:46.350Z,6.77
2019-02-16T06:34:17.294Z,6.87
2019-02-16T06:36:48.330Z,6.87
2019-02-16T06:39:19.783Z,6.97
2019-02-16T06:41:50.619Z,6.87
2019-02-16T06:44:22.074Z,6.90
2019-02-16T06:46:53.013Z,6.40
2019-02-16T06:49:23.845Z,6.30
2019-02-16T06:51:55.609Z,6.47
2019-02-16T06:54:26.906Z,6.50
2019-02-16T06:57:23.099Z,6.97
2019-02-16T06:59:55.989Z,6.50
2019-02-16T07:02:28.858Z,6.77
2019-02-16T07:04:59.890Z,6.37
2019-02-16T07:07:31.365Z,6.33
2019-02-16T07:10:02.798Z,6.30
2019-02-16T07:12:35.166Z,6.70
2019-02-16T07:15:06.922Z,6.30
2019-02-16T07:17:57.014Z,6.80
2019-02-16T07:20:27.827Z,6.40
2019-02-16T07:22:59.065Z,6.03
2019-02-16T07:25:29.427Z,6.30
2019-02-16T07:28:00.158Z,6.07
2019-02-16T07:30:30.561Z,6.03
2019-02-16T07:33:01.518Z,6.50
2019-02-16T07:35:31.877Z,6.47
2019-02-16T07:38:03.173Z,6.37
2019-02-16T07:40:34.335Z,6.33
2019-02-16T07:43:05.908Z,6.70
2019-02-16T07:46:08.340Z,6.30
2019-02-16T07:49:00.094Z,6.23
2019-02-16T07:51:47.870Z,5.97
2019-02-16T07:54:26.738Z,6.13
2019-02-16T07:57:11.421Z,6.17
2019-02-16T08:00:10.522Z,6.20
2019-02-16T08:02:54.651Z,6.13
2019-02-16T08:09:10.264Z,6.20
2019-02-16T08:12:16.527Z,6.13
2019-02-16T08:15:04.452Z,5.93
2019-02-16T08:18:11.322Z,6.10
2019-02-16T08:20:55.394Z,6.27
2019-02-16T08:23:43.122Z,6.20
2019-02-16T08:26:31.877Z,5.73
2019-02-16T08:29:24.510Z,6.17
2019-02-16T08:32:20.656Z,6.10
2019-02-16T08:34:59.857Z,6.00
2019-02-16T08:37:47.738Z,5.97
2019-02-16T08:40:27.726Z,5.83
2019-02-16T08:43:17.453Z,6.07
2019-02-16T08:46:07.341Z,6.23
2019-02-16T08:48:55.932Z,6.03
2019-02-16T08:51:48.943Z,5.47
2019-02-16T08:54:40.384Z,6.20
2019-02-16T08:57:22.595Z,5.70
2019-02-16T09:00:15.831Z,6.00
2019-02-16T09:03:18.325Z,5.83
2019-02-16T09:06:07.182Z,6.00
2019-02-16T09:09:06.645Z,5.80
2019-02-16T09:11:53.058Z,6.17
2019-02-16T09:14:41.526Z,6.20
2019-02-16T09:17:45.934Z,5.37
2019-02-16T09:20:34.502Z,6.40
2019-02-16T09:23:20.782Z,5.90
2019-02-16T09:26:08.129Z,6.20
2019-02-16T09:29:01.166Z,6.07
2019-02-16T09:32:03.260Z,6.03
2019-02-16T09:34:44.606Z,5.93
2019-02-16T09:37:40.235Z,6.13
2019-02-16T09:40:26.404Z,5.97
2019-02-16T09:43:04.981Z,6.00
2019-02-16T09:45:55.169Z,5.97
2019-02-16T09:49:00.474Z,6.07
2019-02-16T09:51:41.680Z,6.17
2019-02-16T09:54:31.870Z,6.23
2019-02-16T09:57:20.146Z,6.00
2019-02-16T10:00:01.502Z,6.27
2019-02-16T10:02:51.438Z,6.40
2019-02-16T10:05:44.325Z,6.23
2019-02-16T10:08:34.525Z,5.93
2019-02-16T10:11:20.415Z,6.27
2019-02-16T10:14:15.222Z,6.40
2019-02-16T10:16:54.962Z,6.30
2019-02-16T10:19:44.258Z,6.47
2019-02-16T10:22:31.092Z,6.67
2019-02-16T10:25:21.842Z,6.27
2019-02-16T10:28:19.718Z,6.43
2019-02-16T10:31:12.975Z,6.17
2019-02-16T10:34:22.831Z,5.93
2019-02-16T10:37:12.095Z,6.50
2019-02-16T10:39:55.062Z,6.37
2019-02-16T10:42:34.128Z,6.27
2019-02-16T10:45:27.962Z,6.27
2019-02-16T10:48:17.302Z,6.63
2019-02-16T10:50:53.964Z,6.20
2019-02-16T10:53:56.137Z,6.40
2019-02-16T10:56:39.570Z,6.57
2019-02-16T10:59:26.380Z,6.13
2019-02-16T11:02:05.086Z,6.70
2019-02-16T11:04:54.479Z,6.57
2019-02-16T11:07:36.557Z,6.47
2019-02-16T11:10:25.591Z,6.40
2019-02-16T11:13:21.521Z,6.33
2019-02-16T11:16:08.433Z,6.30
2019-02-16T11:19:04.809Z,6.70
2019-02-16T11:21:43.634Z,6.17
2019-02-16T11:24:24.915Z,6.33
2019-02-16T11:27:14.489Z,6.57
2019-02-16T11:29:51.991Z,6.50
2019-02-16T11:32:45.033Z,6.57
2019-02-16T11:35:24.495Z,6.70
2019-02-16T11:38:07.501Z,6.67
2019-02-16T11:40:53.670Z,7.03
2019-02-16T11:43:37.446Z,6.77
2019-02-16T11:46:42.689Z,6.87
2019-02-16T11:49:41.472Z,6.67
2019-02-16T11:52:27.065Z,6.63
2019-02-16T11:55:23.692Z,6.40
2019-02-16T11:58:25.305Z,7.00
2019-02-16T12:01:18.516Z,7.07
2019-02-16T12:04:01.946Z,7.47
2019-02-16T12:06:42.610Z,7.60
2019-02-16T12:09:31.573Z,7.80
2019-02-16T12:12:20.224Z,8.00
2019-02-16T12:15:12.415Z,8.90
2019-02-16T12:17:54.155Z,8.70
2019-02-16T12:20:35.328Z,9.20
2019-02-16T12:23:17.046Z,9.20
2019-02-16T12:26:18.361Z,9.77
2019-02-16T12:29:09.381Z,9.93
2019-02-16T12:31:52.970Z,9.90
2019-02-16T12:34:37.787Z,10.13
2019-02-16T12:37:20.353Z,10.67
2019-02-16T12:40:00.345Z,10.93
2019-02-16T12:43:01.886Z,10.87
2019-02-16T12:45:50.921Z,10.93
2019-02-16T12:48:21.390Z,11.07
2019-02-16T12:51:15.926Z,11.20
2019-02-16T12:54:14.140Z,11.63
2019-02-16T12:57:03.340Z,11.47
2019-02-16T12:59:55.473Z,12.07
2019-02-16T13:02:51.670Z,12.13
2019-02-16T13:05:40.819Z,11.93
2019-02-16T13:08:15.942Z,11.77
2019-02-16T13:11:11.473Z,11.93
2019-02-16T13:14:13.390Z,12.37
2019-02-16T13:17:08.623Z,13.10
2019-02-16T13:19:57.146Z,13.80
2019-02-16T13:22:42.166Z,13.57
2019-02-16T13:25:24.471Z,13.47
2019-02-16T13:28:17.317Z,14.10
2019-02-16T13:31:01.623Z,14.00
2019-02-16T13:33:56.627Z,15.33
2019-02-16T13:36:52.051Z,16.03
2019-02-16T13:39:41.495Z,15.80
2019-02-16T13:42:37.738Z,16.13
2019-02-16T13:45:23.278Z,15.60
2019-02-16T13:47:59.089Z,14.80
2019-02-16T13:50:40.969Z,13.93
2019-02-16T13:53:28.658Z,14.17
2019-02-16T13:56:14.624Z,13.77
2019-02-16T13:59:03.255Z,14.53
2019-02-16T14:01:46.094Z,13.60
2019-02-16T14:04:27.649Z,14.00
2019-02-16T14:07:08.026Z,14.10
2019-02-16T14:09:52.323Z,13.67
2019-02-16T14:12:42.569Z,13.37
2019-02-16T14:15:23.854Z,14.27
2019-02-16T14:17:54.840Z,14.43
2019-02-16T14:20:26.017Z,13.90
2019-02-16T14:22:56.990Z,13.20
2019-02-16T14:25:47.468Z,14.13
2019-02-16T14:28:19.846Z,13.90
2019-02-16T14:30:51.282Z,13.60
2019-02-16T14:33:22.438Z,14.70
2019-02-16T14:35:53.502Z,13.90
2019-02-16T14:38:40.788Z,13.90
2019-02-16T14:41:15.518Z,13.30
2019-02-16T14:43:47.298Z,13.40
2019-02-16T14:46:18.726Z,13.57
2019-02-16T14:48:50.113Z,13.70
2019-02-16T14:51:21.625Z,12.60
2019-02-16T14:53:52.982Z,13.37
2019-02-16T14:56:24.217Z,12.67
2019-02-16T14:58:55.369Z,12.97
2019-02-16T15:01:26.413Z,12.60
2019-02-16T15:03:57.346Z,13.37
2019-02-16T15:06:28.790Z,12.57
2019-02-16T15:09:00.254Z,13.13
2019-02-16T15:11:32.923Z,12.97
2019-02-16T15:14:03.818Z,12.87
2019-02-16T15:16:34.719Z,13.53
2019-02-16T15:19:05.778Z,13.07
2019-02-16T15:21:36.624Z,12.40
2019-02-16T15:24:07.453Z,12.93
2019-02-16T15:26:39.719Z,12.50
2019-02-16T15:29:10.894Z,12.90
2019-02-16T15:31:42.307Z,12.83
2019-02-16T15:34:13.460Z,12.73
2019-02-16T15:36:44.962Z,13.00
2019-02-16T15:39:16.838Z,12.83
2019-02-16T15:41:47.841Z,12.93
2019-02-16T15:44:19.276Z,13.23
2019-02-16T15:46:50.345Z,12.77
2019-02-16T15:49:21.861Z,12.90
2019-02-16T15:51:53.216Z,13.00
2019-02-16T15:54:24.514Z,12.77
2019-02-16T15:56:55.626Z,12.90
2019-02-16T15:59:34.994Z,13.00
2019-02-16T16:01:59.433Z,13.50
2019-02-16T16:04:30.871Z,12.70
2019-02-16T16:07:03.248Z,13.60
2019-02-16T16:09:40.711Z,12.43
2019-02-16T16:12:33.785Z,13.50
2019-02-16T16:15:13.963Z,13.20
2019-02-16T16:18:02.994Z,13.63
2019-02-16T16:20:58.482Z,14.53
2019-02-16T16:23:42.291Z,13.97
2019-02-16T16:26:34.966Z,13.70
2019-02-16T16:29:23.261Z,13.90
2019-02-16T16:32:10.031Z,13.80
2019-02-16T16:35:05.850Z,14.33
2019-02-16T16:37:45.586Z,14.73
2019-02-16T16:40:33.122Z,14.87
2019-02-16T16:43:12.460Z,14.30
2019-02-16T16:46:14.054Z,15.20
2019-02-16T16:49:12.346Z,14.67
2019-02-16T16:52:01.512Z,14.67
2019-02-16T16:54:42.377Z,14.50
2019-02-16T16:57:32.378Z,15.17
2019-02-16T17:00:31.763Z,15.33
2019-02-16T17:03:18.873Z,15.27
2019-02-16T17:06:16.239Z,14.37
2019-02-16T17:08:59.845Z,15.87
2019-02-16T17:11:49.959Z,15.17
2019-02-16T17:14:55.374Z,15.33
2019-02-16T17:18:01.131Z,15.47
2019-02-16T17:20:42.099Z,15.60
2019-02-16T17:23:33.860Z,15.83
2019-02-16T17:26:26.835Z,15.57
2019-02-16T17:29:19.434Z,15.50
2019-02-16T17:32:08.669Z,15.43
2019-02-16T17:34:49.945Z,15.73
2019-02-16T17:37:47.202Z,14.77
2019-02-16T17:40:52.359Z,15.37
2019-02-16T17:43:41.115Z,15.10
2019-02-16T17:46:32.286Z,14.80
2019-02-16T17:49:22.110Z,15.50
2019-02-16T17:52:07.614Z,15.00
2019-02-16T17:54:56.859Z,14.97
2019-02-16T17:57:50.534Z,15.27
2019-02-16T18:00:40.580Z,14.80
2019-02-16T18:03:36.686Z,15.00
2019-02-16T18:06:26.532Z,14.67
2019-02-16T18:09:28.731Z,15.00
2019-02-16T18:12:32.930Z,15.37
2019-02-16T18:15:28.719Z,14.47
2019-02-16T18:18:08.431Z,14.17
2019-02-16T18:20:46.981Z,14.83
2019-02-16T18:23:42.750Z,14.70
2019-02-16T18:26:38.843Z,14.40
2019-02-16T18:29:44.050Z,15.00
2019-02-16T18:32:37.249Z,14.33
2019-02-16T18:35:31.010Z,14.73
2019-02-16T18:38:23.158Z,15.40
2019-02-16T18:41:13.034Z,14.90
2019-02-16T18:44:05.354Z,15.20
2019-02-16T18:47:01.462Z,15.23
2019-02-16T18:49:40.916Z,14.97
2019-02-16T18:52:25.668Z,14.47
2019-02-16T18:55:11.154Z,15.43
2019-02-16T18:57:50.143Z,14.63
2019-02-16T19:00:30.784Z,15.33
2019-02-16T19:03:24.178Z,15.50
2019-02-16T19:06:20.748Z,14.80
2019-02-16T19:09:13.800Z,15.30
2019-02-16T19:11:55.044Z,15.03
2019-02-16T19:14:37.234Z,15.17
2019-02-16T19:17:37.788Z,15.30
2019-02-16T19:20:19.782Z,15.03
2019-02-16T19:23:04.770Z,14.47
2019-02-16T19:25:51.652Z,14.60
2019-02-16T19:29:19.366Z,15.90
2019-02-16T19:32:00.371Z,14.60
2019-02-16T19:34:48.690Z,15.07
2019-02-16T19:37:29.129Z,14.80
2019-02-16T19:40:35.280Z,15.30
2019-02-16T19:43:28.521Z,14.87
2019-02-16T19:46:18.167Z,14.67
2019-02-16T19:49:27.055Z,15.27
2019-02-16T19:52:35.918Z,15.50
2019-02-16T19:55:41.229Z,15.57
2019-02-16T19:58:21.993Z,15.10
2019-02-16T20:01:16.724Z,15.40
2019-02-16T20:04:15.602Z,14.97
2019-02-16T20:06:52.998Z,14.57
2019-02-16T20:09:41.373Z,15.13
2019-02-16T20:12:42.606Z,14.37
2019-02-16T20:15:32.466Z,15.13
2019-02-16T20:18:23.331Z,15.40
2019-02-16T20:21:28.793Z,15.17
2019-02-16T20:24:19.291Z,15.13
2019-02-16T20:27:03.904Z,15.37
2019-02-16T20:29:57.347Z,15.40
2019-02-16T20:32:45.559Z,15.10
2019-02-16T20:35:31.553Z,15.60
2019-02-16T20:38:25.940Z,16.10
2019-02-16T20:41:15.238Z,15.30
2019-02-16T20:44:11.548Z,15.17
2019-02-16T20:47:05.877Z,16.10
2019-02-16T20:50:01.740Z,15.53
2019-02-16T20:52:50.034Z,15.13
2019-02-16T20:55:30.284Z,15.57
2019-02-16T20:58:26.421Z,15.50
2019-02-16T21:01:17.148Z,15.33
2019-02-16T21:04:22.844Z,15.13
2019-02-16T21:07:13.152Z,15.27
2019-02-16T21:09:58.695Z,16.00
2019-02-16T21:12:52.370Z,15.27
2019-02-16T21:15:33.773Z,15.93
2019-02-16T21:18:18.873Z,15.17
2019-02-16T21:21:07.182Z,15.67
2019-02-16T21:23:49.248Z,15.37
2019-02-16T21:26:36.285Z,16.10
2019-02-16T21:29:15.560Z,15.63
2019-02-16T21:32:07.900Z,15.80
2019-02-16T21:35:02.779Z,15.33
2019-02-16T21:37:49.286Z,15.50
2019-02-16T21:40:31.942Z,15.17
2019-02-16T21:43:11.471Z,15.10
2019-02-16T21:45:52.981Z,15.90
2019-02-16T21:48:36.258Z,15.47
2019-02-16T21:51:36.031Z,16.03
2019-02-16T21:54:26.014Z,16.50
2019-02-16T21:57:19.045Z,15.77
2019-02-16T22:00:07.831Z,15.03
2019-02-16T22:02:58.506Z,16.17
2019-02-16T22:05:42.952Z,15.97
2019-02-16T22:08:42.007Z,15.63
2019-02-16T22:11:31.939Z,16.07
2019-02-16T22:14:03.359Z,16.17
2019-02-16T22:16:34.513Z,15.93
2019-02-16T22:19:05.660Z,15.50
2019-02-16T22:21:37.363Z,15.80
2019-02-16T22:24:10.164Z,15.87
2019-02-16T22:26:42.540Z,15.67
2019-02-16T22:29:14.167Z,15.53
2019-02-16T22:31:45.543Z,15.30
2019-02-16T22:34:17.986Z,15.13
2019-02-16T22:36:49.795Z,15.30
2019-02-16T22:39:21.230Z,15.37
2019-02-16T22:41:53.584Z,15.80
2019-02-16T22:44:24.968Z,15.80
2019-02-16T22:46:56.218Z,15.90
2019-02-16T22:49:28.518Z,16.10
2019-02-16T22:51:59.750Z,15.37
2019-02-16T22:54:31.922Z,15.47
2019-02-16T22:57:03.286Z,14.77
2019-02-16T22:59:34.682Z,15.63
2019-02-16T23:02:08.557Z,15.63
2019-02-16T23:04:39.437Z,15.93
2019-02-16T23:07:10.566Z,15.57
2019-02-16T23:09:42.027Z,15.57
2019-02-16T23:12:13.166Z,15.57
2019-02-16T23:14:44.612Z,15.70
2019-02-16T23:17:16.074Z,15.10
2019-02-16T23:19:46.918Z,14.60
2019-02-16T23:22:18.042Z,15.27
2019-02-16T23:24:49.507Z,15.07
2019-02-16T23:27:20.641Z,15.67
2019-02-16T23:29:52.090Z,15.13
2019-02-16T23:32:23.277Z,14.83
2019-02-16T23:34:55.313Z,15.00
2019-02-16T23:37:26.766Z,14.53
2019-02-16T23:39:58.109Z,15.27
2019-02-16T23:42:29.259Z,15.63
2019-02-16T23:45:00.014Z,16.23
2019-02-16T23:47:31.224Z,15.83
2019-02-16T23:50:02.064Z,16.83
2019-02-16T23:52:33.201Z,16.37
2019-02-16T23:55:04.966Z,15.93
2019-02-16T23:57:36.098Z,16.73
